Gaines, Michigan
Current Conditions -  °F | °C
As of 9:57 PM on Sunday 23 Nov 2014 (Local Time) from KFNT Reporting Station
Moderate Rain Moderate Rain  
Wind Chill: 52°   Ceiling: 2700
Heat Index: 52°   Visibility: 3mi
Dew Point: 48°   Wind: 16mph
Humidity: 86%   Direction: 130°SE
Pressure: 29.38"   Gusts: NA
Location:  42.87°N, 83.91°W
Report Text: KFNT 240257Z 13014KT 3SM RA BR SCT014 BKN027 OVC042 11/09 A2938 RMK AO2 PRESFR P0002 T01110089
Loading
Personal Weather Stations






























Interactive Weather Map New forecast layout! Learn more

10-Day Weather Forecast

Advertisements
Track Severe Weather on mobile